createdAt,value
2017-10-31T00:00:36.251Z,14.25
2017-10-31T00:03:03.717Z,13.57
2017-10-31T00:05:31.270Z,13.48
2017-10-31T00:07:58.718Z,16.37
2017-10-31T00:10:26.181Z,17.33
2017-10-31T00:12:53.635Z,17.12
2017-10-31T00:15:21.099Z,15.38
2017-10-31T00:17:48.553Z,14.90
2017-10-31T00:20:16.015Z,14.82
2017-10-31T00:22:43.470Z,16.02
2017-10-31T00:25:10.931Z,15.38
2017-10-31T00:27:38.391Z,16.67
2017-10-31T00:30:05.867Z,15.30
2017-10-31T00:32:34.086Z,12.37
2017-10-31T00:35:01.543Z,16.50
2017-10-31T00:37:28.999Z,16.20
2017-10-31T00:39:56.495Z,16.05
2017-10-31T00:42:24.038Z,15.63
2017-10-31T00:44:51.599Z,14.82
2017-10-31T00:47:19.059Z,15.38
2017-10-31T00:49:46.521Z,14.27
2017-10-31T00:52:13.974Z,14.65
2017-10-31T00:54:41.527Z,14.68
2017-10-31T00:57:08.982Z,16.23
2017-10-31T00:59:36.447Z,15.07
2017-10-31T01:02:03.903Z,15.13
2017-10-31T01:04:31.462Z,15.57
2017-10-31T01:06:59.022Z,15.98
2017-10-31T01:09:26.480Z,15.63
2017-10-31T01:11:54.038Z,15.23
2017-10-31T01:14:21.495Z,14.63
2017-10-31T01:16:49.049Z,14.60
2017-10-31T01:19:16.506Z,14.52
2017-10-31T01:21:43.969Z,12.90
2017-10-31T01:24:11.525Z,13.02
2017-10-31T01:26:38.990Z,13.80
2017-10-31T01:29:07.222Z,15.80
2017-10-31T01:31:34.683Z,14.43
2017-10-31T01:34:02.138Z,16.65
2017-10-31T01:36:29.607Z,15.00
2017-10-31T01:38:57.054Z,14.60
2017-10-31T01:41:24.519Z,15.00
2017-10-31T01:43:51.970Z,13.82
2017-10-31T01:46:19.425Z,15.23
2017-10-31T01:48:46.910Z,12.25
2017-10-31T01:51:14.371Z,15.20
2017-10-31T01:53:41.826Z,14.20
2017-10-31T01:56:09.378Z,15.80
2017-10-31T01:58:36.826Z,15.52
2017-10-31T02:01:04.394Z,15.45
2017-10-31T02:03:31.850Z,16.00
2017-10-31T02:05:59.410Z,17.02
2017-10-31T02:08:26.874Z,16.85
2017-10-31T02:10:55.098Z,15.00
2017-10-31T02:13:22.568Z,15.35
2017-10-31T02:15:50.031Z,14.68
2017-10-31T02:18:17.499Z,12.05
2017-10-31T02:20:44.955Z,15.38
2017-10-31T02:23:12.415Z,14.20
2017-10-31T02:25:39.862Z,12.63
2017-10-31T02:28:07.326Z,12.90
2017-10-31T02:30:34.787Z,13.40
2017-10-31T02:33:02.242Z,13.10
2017-10-31T02:35:29.703Z,14.50
2017-10-31T02:37:57.163Z,13.32
2017-10-31T02:40:24.615Z,14.07
2017-10-31T02:42:52.186Z,13.40
2017-10-31T02:45:19.648Z,14.48
2017-10-31T02:47:47.110Z,13.52
2017-10-31T02:50:14.564Z,13.60
2017-10-31T02:52:42.027Z,14.68
2017-10-31T02:55:09.575Z,12.90
2017-10-31T02:57:37.030Z,12.80
2017-10-31T03:00:04.498Z,13.90
2017-10-31T03:02:31.946Z,12.63
2017-10-31T03:04:59.408Z,12.37
2017-10-31T03:07:26.859Z,13.50
2017-10-31T03:09:54.318Z,13.07
2017-10-31T03:12:21.870Z,13.32
2017-10-31T03:14:49.333Z,14.15
2017-10-31T03:17:16.792Z,12.00
2017-10-31T03:19:44.247Z,11.27
2017-10-31T03:22:12.518Z,11.98
2017-10-31T03:24:39.983Z,11.25
2017-10-31T03:27:07.439Z,11.93
2017-10-31T03:29:34.899Z,11.85
2017-10-31T03:32:02.359Z,12.55
2017-10-31T03:34:29.814Z,11.57
2017-10-31T03:36:57.362Z,11.77
2017-10-31T03:39:24.825Z,12.68
2017-10-31T03:41:52.279Z,11.60
2017-10-31T03:44:19.739Z,12.10
2017-10-31T03:46:47.194Z,12.20
2017-10-31T03:49:14.652Z,12.00
2017-10-31T03:51:42.883Z,14.05
2017-10-31T03:54:10.374Z,11.60
2017-10-31T03:56:37.835Z,11.48
2017-10-31T03:59:05.390Z,11.23
2017-10-31T04:01:32.838Z,11.95
2017-10-31T04:04:00.322Z,12.27
2017-10-31T04:06:27.771Z,11.05
2017-10-31T04:08:55.223Z,11.65
2017-10-31T04:11:22.687Z,11.40
2017-10-31T04:13:50.907Z,11.73
2017-10-31T04:16:18.374Z,11.60
2017-10-31T04:18:45.826Z,13.23
2017-10-31T04:21:13.326Z,11.40
2017-10-31T04:23:40.786Z,10.45
2017-10-31T04:26:08.338Z,11.65
2017-10-31T04:28:35.799Z,11.32
2017-10-31T04:31:03.258Z,11.55
2017-10-31T04:33:30.711Z,11.43
2017-10-31T04:35:58.261Z,11.07
2017-10-31T04:38:25.716Z,11.70
2017-10-31T04:40:53.198Z,10.05
2017-10-31T04:43:20.648Z,11.70
2017-10-31T04:45:48.106Z,12.20
2017-10-31T04:48:15.561Z,10.50
2017-10-31T04:50:43.019Z,11.45
2017-10-31T04:53:10.672Z,11.00
2017-10-31T04:55:38.154Z,10.68
2017-10-31T04:58:06.381Z,10.77
2017-10-31T05:00:33.835Z,10.32
2017-10-31T05:03:01.301Z,11.25
2017-10-31T05:05:28.754Z,12.30
2017-10-31T05:07:56.578Z,10.80
2017-10-31T05:10:24.039Z,10.85
2017-10-31T05:12:51.494Z,13.98
2017-10-31T05:15:18.955Z,11.38
2017-10-31T05:17:46.421Z,11.18
2017-10-31T05:20:13.883Z,11.10
2017-10-31T05:22:41.343Z,11.57
2017-10-31T05:25:08.805Z,11.45
2017-10-31T05:27:36.299Z,11.65
2017-10-31T05:30:03.764Z,12.00
2017-10-31T05:32:31.223Z,13.80
2017-10-31T05:34:58.682Z,12.50
2017-10-31T05:37:26.945Z,13.48
2017-10-31T05:39:54.404Z,12.77
2017-10-31T05:42:21.867Z,12.82
2017-10-31T05:44:49.411Z,13.18
2017-10-31T05:47:16.887Z,12.90
2017-10-31T05:49:45.122Z,13.48
2017-10-31T05:52:12.696Z,12.30
2017-10-31T05:54:40.162Z,12.73
2017-10-31T05:57:07.636Z,12.15
2017-10-31T05:59:35.093Z,13.20
2017-10-31T06:02:02.560Z,12.25
2017-10-31T06:04:30.783Z,11.32
2017-10-31T06:06:58.246Z,10.68
2017-10-31T06:09:25.703Z,11.15
2017-10-31T06:11:53.278Z,10.30
2017-10-31T06:14:20.739Z,10.30
2017-10-31T06:16:48.193Z,12.02
2017-10-31T06:19:15.666Z,11.15
2017-10-31T06:21:48.878Z,8.98
2017-10-31T06:24:22.814Z,9.73
2017-10-31T06:26:56.113Z,9.75
2017-10-31T06:29:29.370Z,11.18
2017-10-31T06:32:03.406Z,10.90
2017-10-31T06:34:30.885Z,12.90
2017-10-31T06:36:58.343Z,11.75
2017-10-31T06:39:25.917Z,12.02
2017-10-31T06:41:53.373Z,12.20
2017-10-31T06:44:20.843Z,12.95
2017-10-31T06:46:48.302Z,11.73
2017-10-31T06:49:15.764Z,12.70
2017-10-31T06:51:44.002Z,10.85
2017-10-31T06:54:11.474Z,13.88
2017-10-31T06:56:38.922Z,12.65
2017-10-31T06:59:06.391Z,12.32
2017-10-31T07:01:33.847Z,12.18
2017-10-31T07:04:01.307Z,11.23
2017-10-31T07:06:28.766Z,10.25
2017-10-31T07:08:56.315Z,11.15
2017-10-31T07:11:23.780Z,11.75
2017-10-31T07:13:51.247Z,12.10
2017-10-31T07:16:18.703Z,13.40
2017-10-31T07:18:46.178Z,12.25
2017-10-31T07:21:14.399Z,13.05
2017-10-31T07:23:42.557Z,13.02
2017-10-31T07:26:10.019Z,13.13
2017-10-31T07:28:37.473Z,13.48
2017-10-31T07:31:04.930Z,13.10
2017-10-31T07:33:32.390Z,13.30
2017-10-31T07:35:59.846Z,12.93
2017-10-31T07:38:27.326Z,12.25
2017-10-31T07:40:54.795Z,13.50
2017-10-31T07:43:22.253Z,11.68
2017-10-31T07:45:49.741Z,14.30
2017-10-31T07:48:17.979Z,14.40
2017-10-31T07:50:45.442Z,12.68
2017-10-31T07:53:12.899Z,12.37
2017-10-31T07:55:40.354Z,11.63
2017-10-31T07:58:07.811Z,11.25
2017-10-31T08:00:35.265Z,9.82
2017-10-31T08:03:03.495Z,9.40
2017-10-31T08:05:30.957Z,9.35
2017-10-31T08:07:58.409Z,11.57
2017-10-31T08:10:25.857Z,10.32
2017-10-31T08:12:53.318Z,10.65
2017-10-31T08:15:20.772Z,10.73
2017-10-31T08:17:48.226Z,10.90
2017-10-31T08:20:15.684Z,11.05
2017-10-31T08:22:43.139Z,13.20
2017-10-31T08:25:10.590Z,12.65
2017-10-31T08:27:38.218Z,11.68
2017-10-31T08:30:05.772Z,11.38
2017-10-31T08:32:33.235Z,12.70
2017-10-31T08:35:00.779Z,11.68
2017-10-31T08:37:28.243Z,12.15
2017-10-31T08:39:55.696Z,12.75
2017-10-31T08:42:23.159Z,11.77
2017-10-31T08:44:50.614Z,11.38
2017-10-31T08:47:18.166Z,11.32
2017-10-31T08:49:45.634Z,12.95
2017-10-31T08:52:13.194Z,13.15
2017-10-31T08:54:40.748Z,12.37
2017-10-31T08:57:08.207Z,12.00
2017-10-31T08:59:35.662Z,13.10
2017-10-31T09:02:03.122Z,11.70
2017-10-31T09:04:30.582Z,10.60
2017-10-31T09:06:58.043Z,10.18
2017-10-31T09:09:25.490Z,9.68
2017-10-31T09:11:53.048Z,9.38
2017-10-31T09:14:22.008Z,10.82
2017-10-31T09:16:49.463Z,10.27
2017-10-31T09:19:16.918Z,11.15
2017-10-31T09:21:44.378Z,9.70
2017-10-31T09:24:11.870Z,10.80
2017-10-31T09:26:39.339Z,12.02
2017-10-31T09:29:06.799Z,12.32
2017-10-31T09:31:35.019Z,12.20
2017-10-31T09:34:02.479Z,11.18
2017-10-31T09:36:29.973Z,12.57
2017-10-31T09:38:58.207Z,12.48
2017-10-31T09:41:25.796Z,12.20
2017-10-31T09:43:53.255Z,13.77
2017-10-31T09:46:20.714Z,12.40
2017-10-31T09:48:48.180Z,14.05
2017-10-31T09:51:15.632Z,11.90
2017-10-31T09:53:43.196Z,10.88
2017-10-31T09:56:11.410Z,12.07
2017-10-31T09:58:38.877Z,12.32
2017-10-31T10:01:06.333Z,10.43
2017-10-31T10:03:33.799Z,12.13
2017-10-31T10:06:01.259Z,11.27
2017-10-31T10:08:28.736Z,11.40
2017-10-31T10:10:56.193Z,12.65
2017-10-31T10:13:23.654Z,11.48
2017-10-31T10:15:51.214Z,12.80
2017-10-31T10:18:18.776Z,11.60
2017-10-31T10:20:46.233Z,12.20
2017-10-31T10:23:13.702Z,11.40
2017-10-31T10:25:41.156Z,12.32
2017-10-31T10:28:08.624Z,13.55
2017-10-31T10:30:36.157Z,11.27
2017-10-31T10:33:03.638Z,11.52
2017-10-31T10:35:31.091Z,12.15
2017-10-31T10:37:58.551Z,12.23
2017-10-31T10:40:26.013Z,11.30
2017-10-31T10:42:54.237Z,11.75
2017-10-31T10:45:21.728Z,13.43
2017-10-31T10:47:49.186Z,14.82
2017-10-31T10:50:16.663Z,12.43
2017-10-31T10:52:44.887Z,12.40
2017-10-31T10:55:12.350Z,12.68
2017-10-31T10:57:39.806Z,12.50
2017-10-31T11:00:07.283Z,11.75
2017-10-31T11:02:34.746Z,11.32
2017-10-31T11:05:02.213Z,12.00
2017-10-31T11:07:29.754Z,11.00
2017-10-31T11:09:57.219Z,12.20
2017-10-31T11:12:24.683Z,11.63
2017-10-31T11:14:52.148Z,11.18
2017-10-31T11:17:20.374Z,10.13
2017-10-31T11:19:47.850Z,10.70
2017-10-31T11:22:15.318Z,15.02
2017-10-31T11:24:42.878Z,9.40
2017-10-31T11:27:10.338Z,10.43
2017-10-31T11:29:37.811Z,10.10
2017-10-31T11:32:05.356Z,8.63
2017-10-31T11:34:32.808Z,8.85
2017-10-31T11:37:00.293Z,9.98
2017-10-31T11:39:28.520Z,8.38
2017-10-31T11:41:56.013Z,8.50
2017-10-31T11:44:23.472Z,8.45
2017-10-31T11:46:51.823Z,7.43
2017-10-31T11:49:19.286Z,8.68
2017-10-31T11:51:46.753Z,8.68
2017-10-31T11:54:14.290Z,7.68
2017-10-31T11:56:41.955Z,9.50
2017-10-31T11:59:09.419Z,9.35
2017-10-31T12:01:36.892Z,10.10
2017-10-31T12:04:04.351Z,9.10
2017-10-31T12:06:32.585Z,7.87
2017-10-31T12:09:00.033Z,8.40
2017-10-31T12:11:27.518Z,8.48
2017-10-31T12:13:55.079Z,8.90
2017-10-31T12:16:22.534Z,8.63
2017-10-31T12:18:50.098Z,8.90
2017-10-31T12:21:17.653Z,9.35
2017-10-31T12:23:45.883Z,8.60
2017-10-31T12:26:13.350Z,7.80
2017-10-31T12:28:40.811Z,7.37
2017-10-31T12:31:08.289Z,8.38
2017-10-31T12:33:35.750Z,8.23
2017-10-31T12:36:03.218Z,8.35
2017-10-31T12:38:30.686Z,7.25
2017-10-31T12:40:58.144Z,6.97
2017-10-31T12:43:25.610Z,7.28
2017-10-31T12:45:53.840Z,8.55
2017-10-31T12:48:21.310Z,9.25
2017-10-31T12:50:48.879Z,8.52
2017-10-31T12:53:16.338Z,7.50
2017-10-31T12:55:43.796Z,8.05
2017-10-31T12:58:11.262Z,5.95
2017-10-31T13:00:39.498Z,6.95
2017-10-31T13:03:06.986Z,6.68
2017-10-31T13:05:34.439Z,7.72
2017-10-31T13:08:01.913Z,8.40
2017-10-31T13:10:29.362Z,7.97
2017-10-31T13:12:56.825Z,8.13
2017-10-31T13:15:24.278Z,8.43
2017-10-31T13:17:52.517Z,7.90
2017-10-31T13:20:19.979Z,7.37
2017-10-31T13:22:47.434Z,8.07
2017-10-31T13:25:14.892Z,7.78
2017-10-31T13:27:43.020Z,7.72
2017-10-31T13:30:11.088Z,9.02
2017-10-31T13:32:38.758Z,7.37
2017-10-31T13:35:06.924Z,7.40
2017-10-31T13:37:35.022Z,7.50
2017-10-31T13:40:04.775Z,7.55
2017-10-31T13:42:32.871Z,8.35
2017-10-31T13:45:01.131Z,6.93
2017-10-31T13:47:29.613Z,8.30
2017-10-31T13:49:58.426Z,6.73
2017-10-31T13:52:25.924Z,7.95
2017-10-31T13:54:53.391Z,6.20
2017-10-31T13:57:20.847Z,11.10
2017-10-31T13:59:48.315Z,7.60
2017-10-31T14:02:16.112Z,8.13
2017-10-31T14:04:51.546Z,8.35
2017-10-31T14:07:19.872Z,10.73
2017-10-31T14:09:47.721Z,8.13
2017-10-31T14:12:16.458Z,9.38
2017-10-31T14:14:43.938Z,13.02
2017-10-31T14:17:12.159Z,8.05
2017-10-31T14:19:39.964Z,8.35
2017-10-31T14:22:08.190Z,7.50
2017-10-31T14:24:35.657Z,7.83
2017-10-31T14:27:03.130Z,8.27
2017-10-31T14:29:32.110Z,7.50
2017-10-31T14:31:59.684Z,8.75
2017-10-31T14:34:27.151Z,8.02
2017-10-31T14:36:54.703Z,9.15
2017-10-31T14:39:22.171Z,7.35
2017-10-31T14:41:49.618Z,8.02
2017-10-31T14:44:17.087Z,8.20
2017-10-31T14:46:44.634Z,10.20
2017-10-31T14:49:12.118Z,7.50
2017-10-31T14:51:40.343Z,8.82
2017-10-31T14:54:07.807Z,8.27
2017-10-31T14:56:35.282Z,8.82
2017-10-31T14:59:02.739Z,9.00
2017-10-31T15:01:30.206Z,9.27
2017-10-31T15:03:58.438Z,8.52
2017-10-31T15:06:25.929Z,7.70
2017-10-31T15:08:53.386Z,8.00
2017-10-31T15:11:21.757Z,7.95
2017-10-31T15:13:49.222Z,8.25
2017-10-31T15:16:16.690Z,8.45
2017-10-31T15:18:44.138Z,7.78
2017-10-31T15:21:11.603Z,7.65
2017-10-31T15:23:39.867Z,7.87
2017-10-31T15:26:07.338Z,8.77
2017-10-31T15:28:35.566Z,7.95
2017-10-31T15:31:02.998Z,7.95
2017-10-31T15:33:30.495Z,7.57
2017-10-31T15:35:57.960Z,8.55
2017-10-31T15:38:25.426Z,8.57
2017-10-31T15:40:52.895Z,8.30
2017-10-31T15:43:21.154Z,9.75
2017-10-31T15:45:48.621Z,8.40
2017-10-31T15:48:16.857Z,8.40
2017-10-31T15:50:44.342Z,7.95
2017-10-31T15:53:11.807Z,9.07
2017-10-31T15:55:39.282Z,17.98
2017-10-31T15:58:07.521Z,11.85
2017-10-31T16:00:35.087Z,6.10
2017-10-31T16:03:02.547Z,8.57
2017-10-31T16:05:31.539Z,8.45
2017-10-31T16:07:58.995Z,8.35
2017-10-31T16:10:26.466Z,7.50
2017-10-31T16:12:54.708Z,7.87
2017-10-31T16:15:22.178Z,18.33
2017-10-31T16:17:49.639Z,15.05
2017-10-31T16:20:17.102Z,15.57
2017-10-31T16:22:44.666Z,14.87
2017-10-31T16:25:12.134Z,15.25
2017-10-31T16:27:40.379Z,13.10
2017-10-31T16:30:07.827Z,10.40
2017-10-31T16:32:35.294Z,8.88
2017-10-31T16:35:02.747Z,9.35
2017-10-31T16:37:30.232Z,10.18
2017-10-31T16:39:57.675Z,11.48
2017-10-31T16:42:25.233Z,11.98
2017-10-31T16:44:52.694Z,10.10
2017-10-31T16:47:20.159Z,9.93
2017-10-31T16:49:47.622Z,9.55
2017-10-31T16:52:15.861Z,10.00
2017-10-31T16:54:43.322Z,10.75
2017-10-31T16:57:10.779Z,8.88
2017-10-31T16:59:38.235Z,10.82
2017-10-31T17:02:05.710Z,9.63
2017-10-31T17:04:33.174Z,9.93
2017-10-31T17:07:01.526Z,9.30
2017-10-31T17:09:29.000Z,9.98
2017-10-31T17:11:56.454Z,9.60
2017-10-31T17:14:23.980Z,11.15
2017-10-31T17:16:51.434Z,14.50
2017-10-31T17:19:18.904Z,17.30
2017-10-31T17:21:46.366Z,16.25
2017-10-31T17:24:13.830Z,19.08
2017-10-31T17:26:41.282Z,30.35
2017-10-31T17:29:08.746Z,35.17
2017-10-31T17:31:36.975Z,32.20
2017-10-31T17:34:04.451Z,26.77
2017-10-31T17:36:31.907Z,20.25
2017-10-31T17:38:59.380Z,20.70
2017-10-31T17:41:26.842Z,23.30
2017-10-31T17:43:54.308Z,20.92
2017-10-31T17:46:21.758Z,22.40
2017-10-31T17:48:49.231Z,20.35
2017-10-31T17:51:16.678Z,22.75
2017-10-31T17:53:44.235Z,21.75
2017-10-31T17:56:11.702Z,22.87
2017-10-31T17:58:39.167Z,22.17
2017-10-31T18:01:06.618Z,24.10
2017-10-31T18:03:34.087Z,26.50
2017-10-31T18:06:02.311Z,25.52
2017-10-31T18:08:29.766Z,24.52
2017-10-31T18:10:57.222Z,22.08
2017-10-31T18:13:24.688Z,25.85
2017-10-31T18:15:52.151Z,22.85
2017-10-31T18:18:19.621Z,28.17
2017-10-31T18:20:47.087Z,27.13
2017-10-31T18:23:14.542Z,22.85
2017-10-31T18:25:42.003Z,26.27
2017-10-31T18:28:10.427Z,33.22
2017-10-31T18:30:37.937Z,25.27
2017-10-31T18:33:05.486Z,23.38
2017-10-31T18:35:33.052Z,21.60
2017-10-31T18:38:00.503Z,23.15
2017-10-31T18:40:27.967Z,23.08
2017-10-31T18:42:55.519Z,19.83
2017-10-31T18:45:22.988Z,20.00
2017-10-31T18:47:50.438Z,18.70
2017-10-31T18:50:17.907Z,18.42
2017-10-31T18:52:45.362Z,19.30
2017-10-31T18:55:12.915Z,18.27
2017-10-31T18:57:40.371Z,17.70
2017-10-31T19:00:07.931Z,19.50
2017-10-31T19:02:36.903Z,18.95
2017-10-31T19:05:04.486Z,18.40
2017-10-31T19:07:33.450Z,17.87
2017-10-31T19:10:00.919Z,17.00
2017-10-31T19:12:28.370Z,18.00
2017-10-31T19:14:55.939Z,17.92
2017-10-31T19:17:23.399Z,16.62
2017-10-31T19:19:50.868Z,17.33
2017-10-31T19:22:18.324Z,25.12
2017-10-31T19:24:45.790Z,24.55
2017-10-31T19:27:14.044Z,19.77
2017-10-31T19:29:41.526Z,15.57
2017-10-31T19:32:09.747Z,14.87
2017-10-31T19:34:37.234Z,16.08
2017-10-31T19:37:04.702Z,16.67
2017-10-31T19:39:32.160Z,15.68
2017-10-31T19:41:59.706Z,18.45
2017-10-31T19:44:27.182Z,19.10
2017-10-31T19:46:55.438Z,17.27
2017-10-31T19:49:22.895Z,17.73
2017-10-31T19:51:50.368Z,16.45
2017-10-31T19:54:18.601Z,19.12
2017-10-31T19:56:46.078Z,19.40
2017-10-31T19:59:13.530Z,17.60
2017-10-31T20:01:40.993Z,21.12
2017-10-31T20:04:08.551Z,20.77
2017-10-31T20:06:36.023Z,24.12
2017-10-31T20:09:03.488Z,21.75
2017-10-31T20:11:31.746Z,18.52
2017-10-31T20:13:59.303Z,17.20
2017-10-31T20:16:26.763Z,18.60
2017-10-31T20:18:54.318Z,18.10
2017-10-31T20:21:21.779Z,17.30
2017-10-31T20:23:49.235Z,15.88
2017-10-31T20:26:16.695Z,17.58
2017-10-31T20:28:44.159Z,18.08
2017-10-31T20:31:11.611Z,16.35
2017-10-31T20:33:39.076Z,18.45
2017-10-31T20:36:06.533Z,18.80
2017-10-31T20:38:33.999Z,17.62
2017-10-31T20:41:02.222Z,18.50
2017-10-31T20:43:29.686Z,17.85
2017-10-31T20:45:57.142Z,18.48
2017-10-31T20:48:24.616Z,18.60
2017-10-31T20:50:52.081Z,18.73
2017-10-31T20:53:19.563Z,22.27
2017-10-31T20:55:47.778Z,19.42
2017-10-31T20:58:15.242Z,18.02
2017-10-31T21:00:42.704Z,19.17
2017-10-31T21:03:10.984Z,17.60
2017-10-31T21:05:38.550Z,19.42
2017-10-31T21:08:06.215Z,17.08
2017-10-31T21:10:33.666Z,20.23
2017-10-31T21:13:01.151Z,16.90
2017-10-31T21:15:28.611Z,17.55
2017-10-31T21:17:56.833Z,18.40
2017-10-31T21:20:24.294Z,18.10
2017-10-31T21:22:51.758Z,18.42
2017-10-31T21:25:19.219Z,20.37
2017-10-31T21:27:46.703Z,19.05
2017-10-31T21:30:14.242Z,18.45
2017-10-31T21:32:41.697Z,17.58
2017-10-31T21:35:09.157Z,17.83
2017-10-31T21:37:36.614Z,15.88
2017-10-31T21:40:04.079Z,19.73
2017-10-31T21:42:31.538Z,16.67
2017-10-31T21:44:58.998Z,16.83
2017-10-31T21:47:26.456Z,16.10
2017-10-31T21:49:53.915Z,15.40
2017-10-31T21:52:22.145Z,17.80
2017-10-31T21:54:49.614Z,17.87
2017-10-31T21:57:17.071Z,19.15
2017-10-31T22:02:38.622Z,18.48
2017-10-31T22:05:06.088Z,20.62
2017-10-31T22:07:33.541Z,18.65
2017-10-31T22:10:01.004Z,18.37
2017-10-31T22:12:28.530Z,20.33
2017-10-31T22:14:56.016Z,22.42
2017-10-31T22:17:23.462Z,17.37
2017-10-31T22:19:50.923Z,21.23
2017-10-31T22:22:18.492Z,16.90
2017-10-31T22:24:45.951Z,19.40
2017-10-31T22:27:13.407Z,21.70
2017-10-31T22:29:40.871Z,17.98
2017-10-31T22:32:08.413Z,20.15
2017-10-31T22:34:35.870Z,19.87
2017-10-31T22:37:03.327Z,21.15
2017-10-31T22:39:30.791Z,19.98
2017-10-31T22:41:58.248Z,20.12
2017-10-31T22:44:25.810Z,21.30
2017-10-31T22:46:53.266Z,22.50
2017-10-31T22:49:20.729Z,22.62
2017-10-31T22:51:48.190Z,21.50
2017-10-31T22:54:15.646Z,21.27
2017-10-31T22:56:43.103Z,20.90
2017-10-31T22:59:10.654Z,19.80
2017-10-31T23:01:38.113Z,17.50
2017-10-31T23:04:05.573Z,17.25
2017-10-31T23:06:33.031Z,18.15
2017-10-31T23:09:01.287Z,19.23
2017-10-31T23:11:28.758Z,18.05
2017-10-31T23:13:57.029Z,20.10
2017-10-31T23:16:24.495Z,20.55
2017-10-31T23:18:52.734Z,20.50
2017-10-31T23:21:20.194Z,21.45
2017-10-31T23:23:47.670Z,22.05
2017-10-31T23:26:15.132Z,23.62
2017-10-31T23:28:42.591Z,22.95
2017-10-31T23:31:10.051Z,18.90
2017-10-31T23:33:37.512Z,21.77
2017-10-31T23:36:04.977Z,21.55
2017-10-31T23:38:33.198Z,23.08
2017-10-31T23:41:00.670Z,20.35
2017-10-31T23:43:28.131Z,20.88
2017-10-31T23:45:55.597Z,19.65
2017-10-31T23:48:23.051Z,19.70
2017-10-31T23:50:50.538Z,20.83
2017-10-31T23:53:18.763Z,21.12
2017-10-31T23:55:46.218Z,21.98
2017-10-31T23:58:13.702Z,23.08
